sensor_id;sensor_type;location;lat;lon;timestamp;P1;durP1;ratioP1;P2;durP2;ratioP2
7239;SDS011;3661;53.288;10.458;2023-04-25T00:01:26;1280.55;;;999.90;;
7239;SDS011;3661;53.288;10.458;2023-04-25T00:04:03;1242.28;;;999.90;;
7239;SDS011;3661;53.288;10.458;2023-04-25T00:06:38;1273.63;;;999.90;;
7239;SDS011;3661;53.288;10.458;2023-04-25T00:09:10;1243.20;;;999.90;;
7239;SDS011;3661;53.288;10.458;2023-04-25T00:11:42;1229.57;;;999.90;;
7239;SDS011;3661;53.288;10.458;2023-04-25T00:14:15;1238.88;;;999.90;;
7239;SDS011;3661;53.288;10.458;2023-04-25T00:16:48;1211.93;;;999.90;;
7239;SDS011;3661;53.288;10.458;2023-04-25T00:19:21;1254.10;;;999.90;;
7239;SDS011;3661;53.288;10.458;2023-04-25T00:21:55;1204.80;;;999.90;;
7239;SDS011;3661;53.288;10.458;2023-04-25T00:24:31;1257.85;;;999.90;;
7239;SDS011;3661;53.288;10.458;2023-04-25T00:27:04;1236.55;;;999.90;;
7239;SDS011;3661;53.288;10.458;2023-04-25T00:29:36;1223.43;;;999.90;;
7239;SDS011;3661;53.288;10.458;2023-04-25T00:32:09;1265.50;;;999.90;;
7239;SDS011;3661;53.288;10.458;2023-04-25T00:34:42;1258.82;;;999.90;;
7239;SDS011;3661;53.288;10.458;2023-04-25T00:37:16;1218.72;;;999.90;;
7239;SDS011;3661;53.288;10.458;2023-04-25T00:39:50;1233.88;;;999.90;;
7239;SDS011;3661;53.288;10.458;2023-04-25T00:42:23;1215.90;;;999.90;;
7239;SDS011;3661;53.288;10.458;2023-04-25T00:44:56;1264.40;;;999.90;;
7239;SDS011;3661;53.288;10.458;2023-04-25T00:47:30;1278.03;;;999.90;;
7239;SDS011;3661;53.288;10.458;2023-04-25T00:50:03;1298.07;;;999.90;;
7239;SDS011;3661;53.288;10.458;2023-04-25T00:52:37;1276.72;;;999.90;;
7239;SDS011;3661;53.288;10.458;2023-04-25T00:55:11;1298.95;;;999.90;;
7239;SDS011;3661;53.288;10.458;2023-04-25T00:57:46;1235.43;;;999.90;;
7239;SDS011;3661;53.288;10.458;2023-04-25T01:00:21;1316.15;;;999.90;;
7239;SDS011;3661;53.288;10.458;2023-04-25T01:02:57;1274.97;;;999.90;;
7239;SDS011;3661;53.288;10.458;2023-04-25T01:05:32;1266.63;;;999.90;;
7239;SDS011;3661;53.288;10.458;2023-04-25T01:08:06;1260.47;;;999.90;;
7239;SDS011;3661;53.288;10.458;2023-04-25T01:10:39;1234.73;;;999.90;;
7239;SDS011;3661;53.288;10.458;2023-04-25T01:13:11;1254.30;;;999.90;;
7239;SDS011;3661;53.288;10.458;2023-04-25T01:15:44;1249.43;;;999.90;;
7239;SDS011;3661;53.288;10.458;2023-04-25T01:18:17;1300.72;;;999.90;;
7239;SDS011;3661;53.288;10.458;2023-04-25T01:20:54;1252.07;;;999.90;;
7239;SDS011;3661;53.288;10.458;2023-04-25T01:23:28;1273.65;;;999.90;;
7239;SDS011;3661;53.288;10.458;2023-04-25T01:26:00;1277.13;;;999.90;;
7239;SDS011;3661;53.288;10.458;2023-04-25T01:28:33;1214.57;;;999.90;;
7239;SDS011;3661;53.288;10.458;2023-04-25T01:31:06;1253.07;;;999.90;;
7239;SDS011;3661;53.288;10.458;2023-04-25T01:33:39;1226.70;;;999.90;;
7239;SDS011;3661;53.288;10.458;2023-04-25T01:36:12;1250.15;;;999.90;;
7239;SDS011;3661;53.288;10.458;2023-04-25T01:38:47;1268.45;;;999.90;;
7239;SDS011;3661;53.288;10.458;2023-04-25T01:41:21;1252.63;;;999.90;;
7239;SDS011;3661;53.288;10.458;2023-04-25T01:43:54;1270.97;;;999.90;;
7239;SDS011;3661;53.288;10.458;2023-04-25T01:46:26;1271.40;;;999.90;;
7239;SDS011;3661;53.288;10.458;2023-04-25T01:49:01;1197.70;;;999.90;;
7239;SDS011;3661;53.288;10.458;2023-04-25T01:51:33;1268.15;;;999.90;;
7239;SDS011;3661;53.288;10.458;2023-04-25T01:54:09;1204.28;;;999.90;;
7239;SDS011;3661;53.288;10.458;2023-04-25T01:56:42;1204.03;;;999.90;;
7239;SDS011;3661;53.288;10.458;2023-04-25T01:59:15;1227.97;;;999.90;;
7239;SDS011;3661;53.288;10.458;2023-04-25T02:01:50;1186.30;;;999.90;;
7239;SDS011;3661;53.288;10.458;2023-04-25T02:04:23;1215.28;;;999.90;;
7239;SDS011;3661;53.288;10.458;2023-04-25T02:06:55;1219.75;;;999.90;;
7239;SDS011;3661;53.288;10.458;2023-04-25T02:12:56;1209.07;;;999.90;;
7239;SDS011;3661;53.288;10.458;2023-04-25T02:15:28;1222.43;;;999.90;;
7239;SDS011;3661;53.288;10.458;2023-04-25T02:18:01;1269.60;;;999.90;;
7239;SDS011;3661;53.288;10.458;2023-04-25T02:20:33;1251.97;;;999.90;;
7239;SDS011;3661;53.288;10.458;2023-04-25T02:23:05;1196.13;;;999.90;;
7239;SDS011;3661;53.288;10.458;2023-04-25T02:25:37;1201.97;;;999.90;;
7239;SDS011;3661;53.288;10.458;2023-04-25T02:28:18;1239.03;;;999.90;;
7239;SDS011;3661;53.288;10.458;2023-04-25T02:30:52;1228.97;;;999.90;;
7239;SDS011;3661;53.288;10.458;2023-04-25T02:33:25;1210.38;;;999.90;;
7239;SDS011;3661;53.288;10.458;2023-04-25T02:35:58;1237.88;;;999.90;;
7239;SDS011;3661;53.288;10.458;2023-04-25T02:38:30;1214.85;;;999.90;;
7239;SDS011;3661;53.288;10.458;2023-04-25T02:41:04;1210.40;;;999.90;;
7239;SDS011;3661;53.288;10.458;2023-04-25T02:43:39;1244.57;;;999.90;;
7239;SDS011;3661;53.288;10.458;2023-04-25T02:46:14;1163.07;;;999.90;;
7239;SDS011;3661;53.288;10.458;2023-04-25T02:48:47;1154.82;;;999.90;;
7239;SDS011;3661;53.288;10.458;2023-04-25T02:51:20;1127.18;;;999.90;;
7239;SDS011;3661;53.288;10.458;2023-04-25T02:53:52;1240.50;;;999.90;;
7239;SDS011;3661;53.288;10.458;2023-04-25T02:56:25;1232.05;;;999.90;;
7239;SDS011;3661;53.288;10.458;2023-04-25T02:59:04;1212.22;;;999.90;;
7239;SDS011;3661;53.288;10.458;2023-04-25T03:01:37;1215.37;;;999.90;;
7239;SDS011;3661;53.288;10.458;2023-04-25T03:04:13;1192.40;;;999.90;;
7239;SDS011;3661;53.288;10.458;2023-04-25T03:06:45;1193.50;;;999.90;;
7239;SDS011;3661;53.288;10.458;2023-04-25T03:09:23;1206.35;;;999.90;;
7239;SDS011;3661;53.288;10.458;2023-04-25T03:48:15;1150.28;;;999.90;;
7239;SDS011;3661;53.288;10.458;2023-04-25T03:50:49;1131.45;;;999.90;;
7239;SDS011;3661;53.288;10.458;2023-04-25T03:53:21;1098.18;;;999.90;;
7239;SDS011;3661;53.288;10.458;2023-04-25T03:55:53;1145.60;;;999.90;;
7239;SDS011;3661;53.288;10.458;2023-04-25T03:58:25;1073.68;;;999.90;;
7239;SDS011;3661;53.288;10.458;2023-04-25T04:00:59;1025.82;;;957.58;;
7239;SDS011;3661;53.288;10.458;2023-04-25T04:03:34;1020.88;;;951.95;;
7239;SDS011;3661;53.288;10.458;2023-04-25T04:06:07;997.70;;;929.97;;
7239;SDS011;3661;53.288;10.458;2023-04-25T04:08:41;1020.28;;;953.10;;
7239;SDS011;3661;53.288;10.458;2023-04-25T04:11:14;1042.82;;;974.50;;
7239;SDS011;3661;53.288;10.458;2023-04-25T04:13:49;988.08;;;920.03;;
7239;SDS011;3661;53.288;10.458;2023-04-25T04:16:21;1060.82;;;993.30;;
7239;SDS011;3661;53.288;10.458;2023-04-25T04:18:56;1030.18;;;962.75;;
7239;SDS011;3661;53.288;10.458;2023-04-25T04:21:28;1036.43;;;968.80;;
7239;SDS011;3661;53.288;10.458;2023-04-25T04:24:01;1014.55;;;947.22;;
7239;SDS011;3661;53.288;10.458;2023-04-25T04:26:34;947.77;;;880.73;;
7239;SDS011;3661;53.288;10.458;2023-04-25T04:29:07;977.33;;;909.80;;
7239;SDS011;3661;53.288;10.458;2023-04-25T04:31:41;982.53;;;915.45;;
7239;SDS011;3661;53.288;10.458;2023-04-25T04:34:14;959.28;;;892.35;;
7239;SDS011;3661;53.288;10.458;2023-04-25T04:36:48;974.10;;;907.10;;
7239;SDS011;3661;53.288;10.458;2023-04-25T04:39:20;960.83;;;893.65;;
7239;SDS011;3661;53.288;10.458;2023-04-25T04:41:52;962.75;;;895.58;;
7239;SDS011;3661;53.288;10.458;2023-04-25T04:44:25;944.95;;;877.33;;
7239;SDS011;3661;53.288;10.458;2023-04-25T04:46:58;934.75;;;867.38;;
7239;SDS011;3661;53.288;10.458;2023-04-25T04:49:35;955.28;;;887.83;;
7239;SDS011;3661;53.288;10.458;2023-04-25T04:52:07;962.15;;;894.15;;
7239;SDS011;3661;53.288;10.458;2023-04-25T04:54:41;956.83;;;889.67;;
7239;SDS011;3661;53.288;10.458;2023-04-25T04:57:13;951.42;;;884.15;;
7239;SDS011;3661;53.288;10.458;2023-04-25T04:59:46;958.72;;;892.08;;
7239;SDS011;3661;53.288;10.458;2023-04-25T05:02:18;961.53;;;894.40;;
7239;SDS011;3661;53.288;10.458;2023-04-25T05:04:55;950.92;;;883.88;;
7239;SDS011;3661;53.288;10.458;2023-04-25T05:07:27;958.33;;;891.47;;
7239;SDS011;3661;53.288;10.458;2023-04-25T05:10:03;971.92;;;904.80;;
7239;SDS011;3661;53.288;10.458;2023-04-25T05:12:35;982.67;;;915.37;;
7239;SDS011;3661;53.288;10.458;2023-04-25T05:15:08;967.78;;;900.60;;
7239;SDS011;3661;53.288;10.458;2023-04-25T05:17:40;983.03;;;915.50;;
7239;SDS011;3661;53.288;10.458;2023-04-25T05:20:14;987.67;;;919.78;;
7239;SDS011;3661;53.288;10.458;2023-04-25T05:22:46;979.28;;;911.30;;
7239;SDS011;3661;53.288;10.458;2023-04-25T05:25:18;979.30;;;911.43;;
7239;SDS011;3661;53.288;10.458;2023-04-25T05:27:50;1012.83;;;945.08;;
7239;SDS011;3661;53.288;10.458;2023-04-25T05:30:23;988.90;;;921.10;;
7239;SDS011;3661;53.288;10.458;2023-04-25T05:32:56;1008.53;;;940.23;;
7239;SDS011;3661;53.288;10.458;2023-04-25T05:35:32;1023.55;;;955.95;;
7239;SDS011;3661;53.288;10.458;2023-04-25T05:38:04;1035.50;;;967.58;;
7239;SDS011;3661;53.288;10.458;2023-04-25T05:40:37;1045.97;;;978.20;;
7239;SDS011;3661;53.288;10.458;2023-04-25T05:43:11;1019.90;;;952.33;;
7239;SDS011;3661;53.288;10.458;2023-04-25T05:45:45;1020.60;;;952.53;;
7239;SDS011;3661;53.288;10.458;2023-04-25T05:48:25;1046.32;;;978.28;;
7239;SDS011;3661;53.288;10.458;2023-04-25T05:51:09;1068.95;;;997.80;;
7239;SDS011;3661;53.288;10.458;2023-04-25T05:53:45;1033.43;;;964.85;;
7239;SDS011;3661;53.288;10.458;2023-04-25T05:56:17;981.90;;;913.53;;
7239;SDS011;3661;53.288;10.458;2023-04-25T05:58:49;1026.50;;;958.47;;
7239;SDS011;3661;53.288;10.458;2023-04-25T06:01:21;1066.85;;;998.47;;
7239;SDS011;3661;53.288;10.458;2023-04-25T06:04:01;999.47;;;931.20;;
7239;SDS011;3661;53.288;10.458;2023-04-25T06:06:40;1044.38;;;976.53;;
7239;SDS011;3661;53.288;10.458;2023-04-25T06:09:18;1067.55;;;997.33;;
7239;SDS011;3661;53.288;10.458;2023-04-25T06:11:51;1083.78;;;999.90;;
7239;SDS011;3661;53.288;10.458;2023-04-25T06:14:29;1112.70;;;999.90;;
7239;SDS011;3661;53.288;10.458;2023-04-25T06:17:03;1197.18;;;999.90;;
7239;SDS011;3661;53.288;10.458;2023-04-25T06:19:53;1131.22;;;999.90;;
7239;SDS011;3661;53.288;10.458;2023-04-25T06:22:36;1137.65;;;999.90;;
7239;SDS011;3661;53.288;10.458;2023-04-25T06:25:12;1125.88;;;999.90;;
7239;SDS011;3661;53.288;10.458;2023-04-25T06:27:46;1150.63;;;999.90;;
7239;SDS011;3661;53.288;10.458;2023-04-25T06:30:22;1136.95;;;999.90;;
7239;SDS011;3661;53.288;10.458;2023-04-25T06:32:57;1126.75;;;999.90;;
7239;SDS011;3661;53.288;10.458;2023-04-25T06:35:29;1118.65;;;999.90;;
7239;SDS011;3661;53.288;10.458;2023-04-25T06:38:02;1147.97;;;999.90;;
7239;SDS011;3661;53.288;10.458;2023-04-25T06:40:35;1145.10;;;999.90;;
7239;SDS011;3661;53.288;10.458;2023-04-25T06:43:07;1114.47;;;999.90;;
7239;SDS011;3661;53.288;10.458;2023-04-25T06:45:40;1049.90;;;982.38;;
7239;SDS011;3661;53.288;10.458;2023-04-25T06:48:12;1095.90;;;999.90;;
7239;SDS011;3661;53.288;10.458;2023-04-25T06:50:45;1170.75;;;999.90;;
7239;SDS011;3661;53.288;10.458;2023-04-25T06:53:19;1139.70;;;999.90;;
7239;SDS011;3661;53.288;10.458;2023-04-25T06:55:52;1192.75;;;999.90;;
7239;SDS011;3661;53.288;10.458;2023-04-25T06:58:24;1170.63;;;999.90;;
7239;SDS011;3661;53.288;10.458;2023-04-25T07:00:57;1194.45;;;999.90;;
7239;SDS011;3661;53.288;10.458;2023-04-25T07:03:29;1127.50;;;999.90;;
7239;SDS011;3661;53.288;10.458;2023-04-25T07:06:01;1146.88;;;999.90;;
7239;SDS011;3661;53.288;10.458;2023-04-25T07:08:35;1134.65;;;999.90;;
7239;SDS011;3661;53.288;10.458;2023-04-25T07:11:07;1186.65;;;999.90;;
7239;SDS011;3661;53.288;10.458;2023-04-25T07:13:40;1141.80;;;999.90;;
7239;SDS011;3661;53.288;10.458;2023-04-25T07:16:13;1158.85;;;999.90;;
7239;SDS011;3661;53.288;10.458;2023-04-25T07:18:49;1162.90;;;999.90;;
7239;SDS011;3661;53.288;10.458;2023-04-25T07:21:22;1232.55;;;999.90;;
7239;SDS011;3661;53.288;10.458;2023-04-25T07:23:58;1219.25;;;999.90;;
7239;SDS011;3661;53.288;10.458;2023-04-25T07:26:30;1239.28;;;999.90;;
7239;SDS011;3661;53.288;10.458;2023-04-25T07:29:03;1218.85;;;999.90;;
7239;SDS011;3661;53.288;10.458;2023-04-25T07:31:35;1219.47;;;999.90;;
7239;SDS011;3661;53.288;10.458;2023-04-25T07:34:08;1170.78;;;999.90;;
7239;SDS011;3661;53.288;10.458;2023-04-25T07:36:40;1238.78;;;999.90;;
7239;SDS011;3661;53.288;10.458;2023-04-25T07:39:14;1243.45;;;999.90;;
7239;SDS011;3661;53.288;10.458;2023-04-25T07:41:46;1213.07;;;999.90;;
7239;SDS011;3661;53.288;10.458;2023-04-25T07:44:19;1173.95;;;999.90;;
7239;SDS011;3661;53.288;10.458;2023-04-25T07:46:51;1224.82;;;999.90;;
7239;SDS011;3661;53.288;10.458;2023-04-25T07:49:26;1202.68;;;999.90;;
7239;SDS011;3661;53.288;10.458;2023-04-25T07:51:58;1236.85;;;999.90;;
7239;SDS011;3661;53.288;10.458;2023-04-25T07:54:32;1158.75;;;999.90;;
7239;SDS011;3661;53.288;10.458;2023-04-25T07:57:04;1216.28;;;999.90;;
7239;SDS011;3661;53.288;10.458;2023-04-25T07:59:37;1190.50;;;999.90;;
7239;SDS011;3661;53.288;10.458;2023-04-25T08:02:09;1204.47;;;999.90;;
7239;SDS011;3661;53.288;10.458;2023-04-25T08:04:41;1239.03;;;999.90;;
7239;SDS011;3661;53.288;10.458;2023-04-25T08:07:13;1224.38;;;999.90;;
7239;SDS011;3661;53.288;10.458;2023-04-25T08:09:48;1219.97;;;999.90;;
7239;SDS011;3661;53.288;10.458;2023-04-25T08:12:20;1242.00;;;999.90;;
7239;SDS011;3661;53.288;10.458;2023-04-25T08:14:52;1226.93;;;999.90;;
7239;SDS011;3661;53.288;10.458;2023-04-25T08:17:24;1188.03;;;999.90;;
7239;SDS011;3661;53.288;10.458;2023-04-25T08:19:58;1251.32;;;999.90;;
7239;SDS011;3661;53.288;10.458;2023-04-25T08:22:31;1239.95;;;999.90;;
7239;SDS011;3661;53.288;10.458;2023-04-25T08:25:05;1274.10;;;999.90;;
7239;SDS011;3661;53.288;10.458;2023-04-25T08:27:38;1295.53;;;999.90;;
7239;SDS011;3661;53.288;10.458;2023-04-25T08:30:10;1291.15;;;999.90;;
7239;SDS011;3661;53.288;10.458;2023-04-25T08:32:43;1310.90;;;999.90;;
7239;SDS011;3661;53.288;10.458;2023-04-25T08:35:15;1304.80;;;999.90;;
7239;SDS011;3661;53.288;10.458;2023-04-25T08:37:48;1284.28;;;999.90;;
7239;SDS011;3661;53.288;10.458;2023-04-25T08:40:23;1347.20;;;999.90;;
7239;SDS011;3661;53.288;10.458;2023-04-25T08:43:00;1370.38;;;999.90;;
7239;SDS011;3661;53.288;10.458;2023-04-25T08:45:33;1342.43;;;999.90;;
7239;SDS011;3661;53.288;10.458;2023-04-25T08:48:07;1372.28;;;999.90;;
7239;SDS011;3661;53.288;10.458;2023-04-25T08:50:44;1366.95;;;999.90;;
7239;SDS011;3661;53.288;10.458;2023-04-25T08:53:22;1385.05;;;999.90;;
7239;SDS011;3661;53.288;10.458;2023-04-25T08:56:00;1373.55;;;999.90;;
7239;SDS011;3661;53.288;10.458;2023-04-25T08:58:33;1384.82;;;999.90;;
7239;SDS011;3661;53.288;10.458;2023-04-25T09:01:05;1397.53;;;999.90;;
7239;SDS011;3661;53.288;10.458;2023-04-25T09:03:38;1401.88;;;999.90;;
7239;SDS011;3661;53.288;10.458;2023-04-25T09:06:10;1400.40;;;999.90;;
7239;SDS011;3661;53.288;10.458;2023-04-25T09:08:42;1377.20;;;999.90;;
7239;SDS011;3661;53.288;10.458;2023-04-25T09:11:16;1399.88;;;999.90;;
7239;SDS011;3661;53.288;10.458;2023-04-25T09:13:48;1403.63;;;999.90;;
7239;SDS011;3661;53.288;10.458;2023-04-25T09:16:20;1417.72;;;999.90;;
7239;SDS011;3661;53.288;10.458;2023-04-25T09:18:52;1401.33;;;999.90;;
7239;SDS011;3661;53.288;10.458;2023-04-25T09:21:25;1439.50;;;999.90;;
7239;SDS011;3661;53.288;10.458;2023-04-25T09:23:57;1420.82;;;999.90;;
7239;SDS011;3661;53.288;10.458;2023-04-25T09:26:31;1441.65;;;999.90;;
7239;SDS011;3661;53.288;10.458;2023-04-25T09:29:04;1436.38;;;999.90;;
7239;SDS011;3661;53.288;10.458;2023-04-25T09:31:38;1449.75;;;999.90;;
7239;SDS011;3661;53.288;10.458;2023-04-25T09:34:10;1474.07;;;999.90;;
7239;SDS011;3661;53.288;10.458;2023-04-25T09:36:45;1451.93;;;999.90;;
7239;SDS011;3661;53.288;10.458;2023-04-25T09:39:17;1464.90;;;999.90;;
7239;SDS011;3661;53.288;10.458;2023-04-25T09:41:54;1457.78;;;999.90;;
7239;SDS011;3661;53.288;10.458;2023-04-25T09:44:27;1458.55;;;999.90;;
7239;SDS011;3661;53.288;10.458;2023-04-25T09:46:59;1473.30;;;999.90;;
7239;SDS011;3661;53.288;10.458;2023-04-25T09:49:32;1470.47;;;999.90;;
7239;SDS011;3661;53.288;10.458;2023-04-25T09:52:04;1494.30;;;999.90;;
7239;SDS011;3661;53.288;10.458;2023-04-25T09:54:36;1478.35;;;999.90;;
7239;SDS011;3661;53.288;10.458;2023-04-25T09:57:11;1478.00;;;999.90;;
7239;SDS011;3661;53.288;10.458;2023-04-25T09:59:45;1480.82;;;999.90;;
7239;SDS011;3661;53.288;10.458;2023-04-25T10:02:19;1478.57;;;999.90;;
7239;SDS011;3661;53.288;10.458;2023-04-25T10:04:53;1458.72;;;999.90;;
7239;SDS011;3661;53.288;10.458;2023-04-25T10:07:30;1458.22;;;999.90;;
7239;SDS011;3661;53.288;10.458;2023-04-25T10:10:05;1422.00;;;999.90;;
7239;SDS011;3661;53.288;10.458;2023-04-25T10:12:40;1431.53;;;999.90;;
7239;SDS011;3661;53.288;10.458;2023-04-25T10:15:14;1426.22;;;999.90;;
7239;SDS011;3661;53.288;10.458;2023-04-25T10:17:46;1431.23;;;999.90;;
7239;SDS011;3661;53.288;10.458;2023-04-25T10:20:20;1411.20;;;999.90;;
7239;SDS011;3661;53.288;10.458;2023-04-25T10:22:54;1425.20;;;999.90;;
7239;SDS011;3661;53.288;10.458;2023-04-25T10:25:29;1420.88;;;999.90;;
7239;SDS011;3661;53.288;10.458;2023-04-25T10:28:04;1427.57;;;999.90;;
7239;SDS011;3661;53.288;10.458;2023-04-25T10:30:36;1421.50;;;999.90;;
7239;SDS011;3661;53.288;10.458;2023-04-25T10:33:16;1411.15;;;999.90;;
7239;SDS011;3661;53.288;10.458;2023-04-25T10:35:48;1404.40;;;999.90;;
7239;SDS011;3661;53.288;10.458;2023-04-25T10:38:21;1412.20;;;999.90;;
7239;SDS011;3661;53.288;10.458;2023-04-25T10:41:05;1398.35;;;999.90;;
7239;SDS011;3661;53.288;10.458;2023-04-25T10:43:41;1406.40;;;999.90;;
7239;SDS011;3661;53.288;10.458;2023-04-25T10:46:14;1411.57;;;999.90;;
7239;SDS011;3661;53.288;10.458;2023-04-25T10:48:48;1407.43;;;999.90;;
7239;SDS011;3661;53.288;10.458;2023-04-25T10:51:22;1411.40;;;999.90;;
7239;SDS011;3661;53.288;10.458;2023-04-25T10:53:58;1429.82;;;999.90;;
7239;SDS011;3661;53.288;10.458;2023-04-25T10:56:32;1417.38;;;999.90;;
7239;SDS011;3661;53.288;10.458;2023-04-25T10:59:10;1412.28;;;999.90;;
7239;SDS011;3661;53.288;10.458;2023-04-25T11:01:43;1413.85;;;999.90;;
7239;SDS011;3661;53.288;10.458;2023-04-25T11:04:20;1418.85;;;999.90;;
7239;SDS011;3661;53.288;10.458;2023-04-25T11:09:44;1432.43;;;999.90;;
7239;SDS011;3661;53.288;10.458;2023-04-25T11:12:16;1428.28;;;999.90;;
7239;SDS011;3661;53.288;10.458;2023-04-25T11:14:50;1432.80;;;999.90;;
7239;SDS011;3661;53.288;10.458;2023-04-25T11:17:29;1445.50;;;999.90;;
7239;SDS011;3661;53.288;10.458;2023-04-25T11:20:01;1441.70;;;999.90;;
7239;SDS011;3661;53.288;10.458;2023-04-25T11:22:41;1476.95;;;999.90;;
7239;SDS011;3661;53.288;10.458;2023-04-25T11:25:15;1482.72;;;999.90;;
7239;SDS011;3661;53.288;10.458;2023-04-25T11:27:50;1478.53;;;999.90;;
7239;SDS011;3661;53.288;10.458;2023-04-25T11:30:25;1514.47;;;999.90;;
7239;SDS011;3661;53.288;10.458;2023-04-25T11:32:58;1494.25;;;999.90;;
7239;SDS011;3661;53.288;10.458;2023-04-25T11:35:32;1509.10;;;999.90;;
7239;SDS011;3661;53.288;10.458;2023-04-25T11:38:06;1524.33;;;999.90;;
7239;SDS011;3661;53.288;10.458;2023-04-25T11:40:39;1506.80;;;999.90;;
7239;SDS011;3661;53.288;10.458;2023-04-25T11:43:12;1511.95;;;999.90;;
7239;SDS011;3661;53.288;10.458;2023-04-25T11:45:47;1516.70;;;999.90;;
7239;SDS011;3661;53.288;10.458;2023-04-25T11:48:20;1519.17;;;999.90;;
7239;SDS011;3661;53.288;10.458;2023-04-25T11:50:53;1509.75;;;999.90;;
7239;SDS011;3661;53.288;10.458;2023-04-25T11:53:25;1507.03;;;999.90;;
7239;SDS011;3661;53.288;10.458;2023-04-25T11:55:58;1496.80;;;999.90;;
7239;SDS011;3661;53.288;10.458;2023-04-25T11:58:30;1502.07;;;999.90;;
7239;SDS011;3661;53.288;10.458;2023-04-25T12:01:04;1505.68;;;999.90;;
7239;SDS011;3661;53.288;10.458;2023-04-25T12:03:45;1507.18;;;999.90;;
7239;SDS011;3661;53.288;10.458;2023-04-25T12:06:17;1498.22;;;999.90;;
7239;SDS011;3661;53.288;10.458;2023-04-25T12:09:01;1489.28;;;999.90;;
7239;SDS011;3661;53.288;10.458;2023-04-25T12:11:40;1479.10;;;999.90;;
7239;SDS011;3661;53.288;10.458;2023-04-25T12:14:20;1494.47;;;999.90;;
7239;SDS011;3661;53.288;10.458;2023-04-25T12:16:56;1475.82;;;999.90;;
7239;SDS011;3661;53.288;10.458;2023-04-25T12:19:32;1509.88;;;999.90;;
7239;SDS011;3661;53.288;10.458;2023-04-25T12:22:18;1477.77;;;999.90;;
7239;SDS011;3661;53.288;10.458;2023-04-25T12:24:53;1491.78;;;999.90;;
7239;SDS011;3661;53.288;10.458;2023-04-25T12:27:26;1476.97;;;999.90;;
7239;SDS011;3661;53.288;10.458;2023-04-25T12:30:00;1478.95;;;999.90;;
7239;SDS011;3661;53.288;10.458;2023-04-25T12:32:33;1480.05;;;999.90;;
7239;SDS011;3661;53.288;10.458;2023-04-25T12:35:06;1481.60;;;999.90;;
7239;SDS011;3661;53.288;10.458;2023-04-25T12:37:38;1499.25;;;999.90;;
7239;SDS011;3661;53.288;10.458;2023-04-25T12:40:11;1519.88;;;999.90;;
7239;SDS011;3661;53.288;10.458;2023-04-25T12:42:43;1522.60;;;999.90;;
7239;SDS011;3661;53.288;10.458;2023-04-25T12:45:15;1532.97;;;999.90;;
7239;SDS011;3661;53.288;10.458;2023-04-25T12:47:49;1540.80;;;999.90;;
7239;SDS011;3661;53.288;10.458;2023-04-25T12:50:21;1535.70;;;999.90;;
7239;SDS011;3661;53.288;10.458;2023-04-25T12:52:53;1530.95;;;999.90;;
7239;SDS011;3661;53.288;10.458;2023-04-25T12:55:25;1533.67;;;999.90;;
7239;SDS011;3661;53.288;10.458;2023-04-25T12:57:58;1542.20;;;999.90;;
7239;SDS011;3661;53.288;10.458;2023-04-25T13:00:30;1517.43;;;999.90;;
7239;SDS011;3661;53.288;10.458;2023-04-25T13:03:03;1521.90;;;999.90;;
7239;SDS011;3661;53.288;10.458;2023-04-25T13:05:37;1510.30;;;999.90;;
7239;SDS011;3661;53.288;10.458;2023-04-25T13:08:10;1538.17;;;999.90;;
7239;SDS011;3661;53.288;10.458;2023-04-25T13:10:42;1532.70;;;999.90;;
7239;SDS011;3661;53.288;10.458;2023-04-25T13:13:14;1517.30;;;999.90;;
7239;SDS011;3661;53.288;10.458;2023-04-25T13:15:47;1524.80;;;999.90;;
7239;SDS011;3661;53.288;10.458;2023-04-25T13:18:20;1531.18;;;999.90;;
7239;SDS011;3661;53.288;10.458;2023-04-25T13:20:56;1528.85;;;999.90;;
7239;SDS011;3661;53.288;10.458;2023-04-25T13:23:29;1529.18;;;999.90;;
7239;SDS011;3661;53.288;10.458;2023-04-25T13:26:01;1484.03;;;999.90;;
7239;SDS011;3661;53.288;10.458;2023-04-25T13:28:34;1521.38;;;999.90;;
7239;SDS011;3661;53.288;10.458;2023-04-25T13:31:06;1510.13;;;999.90;;
7239;SDS011;3661;53.288;10.458;2023-04-25T13:33:39;1495.72;;;999.90;;
7239;SDS011;3661;53.288;10.458;2023-04-25T13:36:11;1475.13;;;999.90;;
7239;SDS011;3661;53.288;10.458;2023-04-25T13:38:43;1474.93;;;999.90;;
7239;SDS011;3661;53.288;10.458;2023-04-25T13:41:17;1496.95;;;999.90;;
7239;SDS011;3661;53.288;10.458;2023-04-25T13:43:49;1497.60;;;999.90;;
7239;SDS011;3661;53.288;10.458;2023-04-25T13:46:22;1497.70;;;999.90;;
7239;SDS011;3661;53.288;10.458;2023-04-25T13:48:55;1480.20;;;999.90;;
7239;SDS011;3661;53.288;10.458;2023-04-25T13:51:27;1485.30;;;999.90;;
7239;SDS011;3661;53.288;10.458;2023-04-25T13:54:00;1482.18;;;999.90;;
7239;SDS011;3661;53.288;10.458;2023-04-25T13:56:32;1485.10;;;999.90;;
7239;SDS011;3661;53.288;10.458;2023-04-25T13:59:05;1468.38;;;999.90;;
7239;SDS011;3661;53.288;10.458;2023-04-25T14:01:37;1490.22;;;999.90;;
7239;SDS011;3661;53.288;10.458;2023-04-25T14:04:10;1451.33;;;999.90;;
7239;SDS011;3661;53.288;10.458;2023-04-25T14:06:42;1481.13;;;999.90;;
7239;SDS011;3661;53.288;10.458;2023-04-25T14:09:15;1490.47;;;999.90;;
7239;SDS011;3661;53.288;10.458;2023-04-25T14:11:48;1509.00;;;999.90;;
7239;SDS011;3661;53.288;10.458;2023-04-25T14:14:20;1519.15;;;999.90;;
7239;SDS011;3661;53.288;10.458;2023-04-25T14:16:53;1507.85;;;999.90;;
7239;SDS011;3661;53.288;10.458;2023-04-25T14:19:26;1521.53;;;999.90;;
7239;SDS011;3661;53.288;10.458;2023-04-25T14:21:59;1546.45;;;999.90;;
7239;SDS011;3661;53.288;10.458;2023-04-25T14:24:31;1539.55;;;999.90;;
7239;SDS011;3661;53.288;10.458;2023-04-25T14:27:03;1540.10;;;999.90;;
7239;SDS011;3661;53.288;10.458;2023-04-25T14:29:35;1532.70;;;999.90;;
7239;SDS011;3661;53.288;10.458;2023-04-25T14:32:07;1536.18;;;999.90;;
7239;SDS011;3661;53.288;10.458;2023-04-25T14:34:41;1532.88;;;999.90;;
7239;SDS011;3661;53.288;10.458;2023-04-25T14:37:14;1534.78;;;999.90;;
7239;SDS011;3661;53.288;10.458;2023-04-25T14:39:47;1551.47;;;999.90;;
7239;SDS011;3661;53.288;10.458;2023-04-25T14:42:19;1556.88;;;999.90;;
7239;SDS011;3661;53.288;10.458;2023-04-25T14:44:51;1542.18;;;999.90;;
7239;SDS011;3661;53.288;10.458;2023-04-25T14:47:23;1551.28;;;999.90;;
7239;SDS011;3661;53.288;10.458;2023-04-25T14:49:57;1544.95;;;999.90;;
7239;SDS011;3661;53.288;10.458;2023-04-25T14:52:29;1539.00;;;999.90;;
7239;SDS011;3661;53.288;10.458;2023-04-25T14:55:03;1544.78;;;999.90;;
7239;SDS011;3661;53.288;10.458;2023-04-25T14:57:35;1545.22;;;999.90;;
7239;SDS011;3661;53.288;10.458;2023-04-25T15:00:09;1520.25;;;999.90;;
7239;SDS011;3661;53.288;10.458;2023-04-25T15:02:45;1546.43;;;999.90;;
7239;SDS011;3661;53.288;10.458;2023-04-25T15:05:19;1521.82;;;999.90;;
7239;SDS011;3661;53.288;10.458;2023-04-25T15:07:51;1522.00;;;999.90;;
7239;SDS011;3661;53.288;10.458;2023-04-25T15:10:23;1529.78;;;999.90;;
7239;SDS011;3661;53.288;10.458;2023-04-25T15:12:55;1507.43;;;999.90;;
7239;SDS011;3661;53.288;10.458;2023-04-25T15:15:27;1505.13;;;999.90;;
7239;SDS011;3661;53.288;10.458;2023-04-25T15:18:00;1539.97;;;999.90;;